Time;durP1;ratioP1;P1;durP2;ratioP2;P2;SDS_P1;SDS_P2;PMS_P1;PMS_P2;Temp;Humidity;BMP_temperature;BMP_pressure;BME280_temperature;BME280_humidity;BME280_pressure;Samples;Min_cycle;Max_cycle;Signal;HPM_P1;HPM_P2
2021/12/23 00:00:32;;;;;;;;;24.67;23.00;;;;;21.52;48.11;101615.77;109350;1280;21265;-72
2021/12/23 00:03:05;;;;;;;;;29.00;24.67;;;;;21.51;48.04;101612.20;109392;1280;19785;-72
2021/12/23 00:05:31;;;;;;;;;21.50;19.00;;;;;21.51;48.02;101612.54;109367;1280;18960;-72
2021/12/23 00:07:57;;;;;;;;;24.00;21.00;;;;;21.50;47.93;101610.25;109356;1280;22305;-71
2021/12/23 00:10:23;;;;;;;;;23.00;19.00;;;;;21.51;47.81;101611.86;109317;1280;19910;-71
2021/12/23 00:12:48;;;;;;;;;25.50;23.00;;;;;21.52;47.89;101609.80;109310;1279;18587;-72
2021/12/23 00:15:23;;;;;;;;;24.00;22.00;;;;;21.51;47.90;101610.05;109357;1279;18811;-72
2021/12/23 00:17:58;;;;;;;;;22.00;18.00;;;;;21.50;47.86;101606.82;109303;1279;19510;-72
2021/12/23 00:23:24;;;;;;;;;21.67;20.67;;;;;21.50;47.88;101601.59;109309;1279;19493;-72
2021/12/23 00:25:50;;;;;;;;;25.00;21.00;;;;;21.50;47.62;101601.05;109346;1279;21179;-72
2021/12/23 00:28:16;;;;;;;;;24.00;20.00;;;;;21.50;47.70;101601.63;109338;1280;19196;-72
2021/12/23 00:30:42;;;;;;;;;20.00;20.00;;;;;21.49;47.79;101596.75;109340;1280;20993;-72
2021/12/23 00:33:08;;;;;;;;;22.00;21.00;;;;;21.49;47.82;101591.33;109322;1279;20613;-72
2021/12/23 00:35:34;;;;;;;;;23.00;21.00;;;;;21.46;47.67;101582.58;109313;1280;18601;-72
2021/12/23 00:38:04;;;;;;;;;23.00;21.50;;;;;21.47;47.77;101583.21;109346;1280;19241;-69
2021/12/23 00:40:30;;;;;;;;;25.00;24.00;;;;;21.47;47.83;101586.99;109340;1279;21069;-72
2021/12/23 00:42:55;;;;;;;;;22.00;20.50;;;;;21.48;47.84;101577.86;109282;1279;18673;-72
2021/12/23 00:45:21;;;;;;;;;23.00;21.00;;;;;21.47;47.79;101579.92;109334;1280;19103;-72
2021/12/23 00:47:47;;;;;;;;;20.00;18.00;;;;;21.48;47.58;101574.38;109292;1280;20019;-72
2021/12/23 00:50:13;;;;;;;;;22.00;21.50;;;;;21.47;47.57;101574.79;109331;1279;18734;-72
2021/12/23 00:52:40;;;;;;;;;22.00;20.00;;;;;21.47;47.49;101576.83;109305;1280;18764;-72
2021/12/23 00:55:06;;;;;;;;;23.33;21.00;;;;;21.48;47.49;101577.32;109331;1280;19515;-73
2021/12/23 00:57:37;;;;;;;;;23.50;21.00;;;;;21.47;47.51;101572.45;109377;1280;18662;-73
2021/12/23 01:00:03;;;;;;;;;24.00;21.00;;;;;21.46;47.40;101567.64;109313;1280;19527;-72
2021/12/23 01:02:31;;;;;;;;;22.00;20.50;;;;;21.47;47.51;101564.83;109339;1279;19392;-72
2021/12/23 01:04:57;;;;;;;;;21.00;20.50;;;;;21.46;47.33;101560.20;109332;1278;18794;-72
2021/12/23 01:07:23;;;;;;;;;25.00;24.00;;;;;21.47;47.33;101559.23;109412;1280;20350;-72
2021/12/23 01:09:49;;;;;;;;;28.50;24.00;;;;;21.46;47.31;101556.21;109399;1279;19904;-72
2021/12/23 01:12:18;;;;;;;;;25.00;22.00;;;;;21.46;47.35;101556.98;109374;1280;19281;-72
2021/12/23 01:14:55;;;;;;;;;25.50;21.50;;;;;21.46;47.25;101559.84;109284;1280;19306;-72
2021/12/23 01:17:32;;;;;;;;;24.00;21.00;;;;;21.46;47.14;101555.47;109333;1279;19766;-72
2021/12/23 01:20:00;;;;;;;;;27.33;22.33;;;;;21.45;47.27;101554.09;109274;1280;20418;-73
2021/12/23 01:22:26;;;;;;;;;28.00;23.33;;;;;21.46;47.20;101550.42;109372;1279;22357;-72
2021/12/23 01:24:52;;;;;;;;;21.00;20.50;;;;;21.45;47.07;101542.82;109331;1279;20722;-72
2021/12/23 01:27:18;;;;;;;;;26.00;21.00;;;;;21.45;47.02;101535.38;109265;1280;23619;-72
2021/12/23 01:29:43;;;;;;;;;23.50;21.50;;;;;21.45;47.12;101527.54;109304;1280;20696;-72
2021/12/23 01:32:09;;;;;;;;;24.00;21.00;;;;;21.46;46.81;101525.85;109324;1280;19913;-72
2021/12/23 01:34:35;;;;;;;;;21.00;20.00;;;;;21.45;46.98;101521.61;109302;1280;18542;-72
2021/12/23 01:37:01;;;;;;;;;24.50;20.50;;;;;21.44;46.84;101522.35;109373;1279;19057;-72
2021/12/23 01:39:27;;;;;;;;;24.67;20.67;;;;;21.41;46.68;101509.27;109381;1279;22344;-72
2021/12/23 01:41:53;;;;;;;;;29.00;22.00;;;;;21.44;46.77;101509.13;109319;1279;23485;-72
2021/12/23 01:44:19;;;;;;;;;25.00;22.00;;;;;21.44;46.87;101508.04;109337;1280;19333;-71
2021/12/23 01:46:45;;;;;;;;;26.50;22.50;;;;;21.44;46.91;101508.41;109322;1280;19669;-72
2021/12/23 01:49:11;;;;;;;;;25.00;24.00;;;;;21.40;46.73;101499.39;109345;1280;19228;-72
2021/12/23 01:51:37;;;;;;;;;23.33;21.67;;;;;21.42;46.73;101499.30;109378;1279;19523;-72
2021/12/23 01:54:03;;;;;;;;;25.50;23.00;;;;;21.43;46.91;101495.25;109312;1280;19712;-72
2021/12/23 01:56:29;;;;;;;;;24.00;20.00;;;;;21.43;46.68;101492.93;109373;1280;18571;-72
2021/12/23 01:58:54;;;;;;;;;24.00;20.00;;;;;21.42;46.61;101489.90;109384;1279;18718;-73
2021/12/23 02:01:20;;;;;;;;;21.00;21.00;;;;;21.43;46.63;101485.50;109348;1280;22555;-72
2021/12/23 02:03:46;;;;;;;;;23.00;20.50;;;;;21.42;46.52;101481.34;109358;1280;18549;-72
2021/12/23 02:06:12;;;;;;;;;24.00;20.50;;;;;21.41;46.51;101479.66;109341;1280;18746;-72
2021/12/23 02:08:38;;;;;;;;;21.00;20.00;;;;;21.41;46.67;101480.86;109360;1279;20975;-72
2021/12/23 02:11:04;;;;;;;;;23.00;20.00;;;;;21.41;46.42;101472.56;109340;1280;18543;-72
2021/12/23 02:13:30;;;;;;;;;24.00;22.00;;;;;21.40;46.38;101471.71;109327;1279;19278;-72
2021/12/23 02:15:55;;;;;;;;;22.00;20.00;;;;;21.41;46.36;101472.98;109322;1280;22741;-70
2021/12/23 02:18:21;;;;;;;;;22.00;21.00;;;;;21.40;46.47;101471.76;109308;1279;20788;-73
2021/12/23 02:20:47;;;;;;;;;23.50;21.00;;;;;21.40;46.49;101467.89;109318;1279;18612;-73
2021/12/23 02:23:13;;;;;;;;;24.00;21.50;;;;;21.40;46.49;101464.48;109374;1280;19464;-74
2021/12/23 02:25:39;;;;;;;;;21.50;21.00;;;;;21.39;46.34;101459.64;109326;1280;18597;-73
2021/12/23 02:28:07;;;;;;;;;25.50;22.00;;;;;21.39;46.31;101456.23;109345;1280;22586;-73
2021/12/23 02:30:33;;;;;;;;;20.00;17.00;;;;;21.39;46.28;101448.55;109339;1279;22148;-73
2021/12/23 02:32:59;;;;;;;;;25.00;24.00;;;;;21.40;46.45;101450.10;109341;1280;18680;-73
2021/12/23 02:35:25;;;;;;;;;21.50;21.00;;;;;21.39;46.36;101447.30;109323;1280;22415;-73
2021/12/23 02:37:51;;;;;;;;;24.00;21.00;;;;;21.40;46.28;101441.60;109367;1279;19997;-73
2021/12/23 02:40:17;;;;;;;;;20.00;19.00;;;;;21.40;46.32;101434.89;109327;1279;19284;-73
2021/12/23 02:42:43;;;;;;;;;23.50;21.50;;;;;21.38;46.40;101428.89;109351;1280;22888;-73
2021/12/23 02:45:09;;;;;;;;;23.00;20.00;;;;;21.38;46.50;101422.92;109272;1279;19288;-73
2021/12/23 02:47:35;;;;;;;;;23.33;18.00;;;;;21.38;46.45;101419.10;109294;1279;18875;-73
2021/12/23 02:50:01;;;;;;;;;24.00;21.50;;;;;21.37;46.63;101412.60;109325;1280;18707;-71
2021/12/23 02:52:27;;;;;;;;;18.00;17.00;;;;;21.38;46.49;101413.10;109292;1279;19861;-72
2021/12/23 02:54:53;;;;;;;;;25.00;21.50;;;;;21.37;46.29;101411.54;109350;1280;18586;-72
2021/12/23 02:57:18;;;;;;;;;25.50;23.00;;;;;21.37;46.16;101405.73;109403;1280;19728;-72
2021/12/23 02:59:44;;;;;;;;;25.50;22.00;;;;;21.37;46.17;101405.16;109339;1280;19873;-72
2021/12/23 03:02:10;;;;;;;;;27.00;24.00;;;;;21.36;45.87;101401.62;109314;1280;23126;-72
2021/12/23 03:04:36;;;;;;;;;24.00;17.50;;;;;21.35;45.99;101401.55;109292;1280;18720;-72
2021/12/23 03:07:02;;;;;;;;;24.00;21.00;;;;;21.36;45.98;101395.41;109333;1280;19420;-72
2021/12/23 03:09:28;;;;;;;;;24.00;22.00;;;;;21.35;45.79;101393.23;109331;1280;21647;-72
2021/12/23 03:11:54;;;;;;;;;18.00;17.50;;;;;21.34;45.93;101386.98;109360;1279;18611;-72
2021/12/23 03:14:19;;;;;;;;;25.00;22.00;;;;;21.33;45.99;101384.83;109342;1280;22225;-72
2021/12/23 03:16:46;;;;;;;;;26.00;22.50;;;;;21.33;45.68;101383.56;109285;1280;20701;-72
2021/12/23 03:19:12;;;;;;;;;25.33;20.00;;;;;21.33;45.86;101377.94;109319;1279;21517;-73
2021/12/23 03:21:38;;;;;;;;;24.50;21.00;;;;;21.34;45.71;101374.95;109318;1279;19594;-72
2021/12/23 03:24:04;;;;;;;;;25.00;21.50;;;;;21.34;45.78;101371.70;109388;1280;19207;-72
2021/12/23 03:26:30;;;;;;;;;23.50;22.00;;;;;21.35;45.78;101367.79;109335;1280;19266;-73
2021/12/23 03:28:55;;;;;;;;;25.00;20.00;;;;;21.34;45.52;101364.55;109351;1278;20952;-73
2021/12/23 03:31:21;;;;;;;;;22.00;21.00;;;;;21.32;45.52;101358.41;109344;1280;19133;-73
2021/12/23 03:33:47;;;;;;;;;21.50;20.00;;;;;21.32;45.80;101353.91;109375;1280;19163;-73
2021/12/23 03:36:13;;;;;;;;;22.00;20.00;;;;;21.33;45.62;101354.70;109336;1279;20792;-73
2021/12/23 03:38:39;;;;;;;;;27.00;22.50;;;;;21.34;45.66;101351.53;109363;1280;19579;-74
2021/12/23 03:41:05;;;;;;;;;22.00;20.00;;;;;21.33;45.47;101346.31;109324;1279;18818;-73
2021/12/23 03:43:31;;;;;;;;;26.00;23.00;;;;;21.33;45.42;101337.95;109338;1280;19875;-73
2021/12/23 03:45:56;;;;;;;;;25.00;21.00;;;;;21.33;45.63;101337.17;109348;1279;21070;-71
2021/12/23 03:48:22;;;;;;;;;28.00;20.00;;;;;21.32;45.52;101331.86;109377;1279;19244;-73
2021/12/23 03:50:48;;;;;;;;;23.00;20.00;;;;;21.33;45.51;101325.08;109297;1280;19322;-73
2021/12/23 03:53:14;;;;;;;;;22.00;21.00;;;;;21.31;45.19;101325.58;109347;1280;19311;-73
2021/12/23 03:55:40;;;;;;;;;23.50;22.00;;;;;21.33;45.31;101328.89;109308;1280;19071;-72
2021/12/23 03:58:06;;;;;;;;;22.50;20.00;;;;;21.32;45.37;101329.13;109341;1279;19347;-73
2021/12/23 04:00:32;;;;;;;;;21.00;20.00;;;;;21.32;45.30;101326.23;109386;1280;18843;-73
2021/12/23 04:02:57;;;;;;;;;24.00;21.00;;;;;21.32;45.33;101326.06;109371;1280;22531;-73
2021/12/23 04:05:24;;;;;;;;;21.00;20.50;;;;;21.31;45.42;101323.78;109385;1279;19314;-73
2021/12/23 04:07:50;;;;;;;;;28.67;21.00;;;;;21.32;45.18;101320.40;109391;1279;19049;-72
2021/12/23 04:10:15;;;;;;;;;21.50;19.00;;;;;21.30;45.36;101313.95;109313;1280;18658;-73
2021/12/23 04:12:41;;;;;;;;;26.00;24.00;;;;;21.30;45.28;101307.92;109390;1279;19954;-72
2021/12/23 04:15:07;;;;;;;;;22.00;20.00;;;;;21.30;45.30;101308.89;109160;1279;18795;-73
2021/12/23 04:17:33;;;;;;;;;21.00;20.00;;;;;21.29;45.20;101306.19;109195;1279;18666;-72
2021/12/23 04:20:10;;;;;;;;;25.50;21.50;;;;;21.28;45.20;101298.27;109243;1279;20754;-72
2021/12/23 04:22:35;;;;;;;;;22.00;21.00;;;;;21.29;45.31;101302.21;109260;1279;24091;-72
2021/12/23 04:25:01;;;;;;;;;22.50;18.00;;;;;21.30;45.27;101299.42;109333;1280;23077;-72
2021/12/23 04:27:27;;;;;;;;;24.00;21.00;;;;;21.31;45.24;101293.69;109388;1280;19980;-73
2021/12/23 04:29:53;;;;;;;;;24.00;22.00;;;;;21.32;45.00;101295.31;109349;1279;19250;-73
2021/12/23 04:32:19;;;;;;;;;23.00;21.00;;;;;21.32;45.02;101294.80;109334;1279;19327;-75
2021/12/23 04:34:45;;;;;;;;;18.67;18.00;;;;;21.32;44.96;101291.57;109324;1280;22207;-73
2021/12/23 04:37:13;;;;;;;;;21.00;20.00;;;;;21.31;45.01;101291.44;109401;1278;22421;-72
2021/12/23 04:39:39;;;;;;;;;25.00;24.00;;;;;21.31;45.06;101289.29;109355;1280;20389;-73
2021/12/23 04:42:05;;;;;;;;;23.50;21.00;;;;;21.30;44.97;101280.45;109319;1280;20176;-72
2021/12/23 04:44:31;;;;;;;;;18.00;18.00;;;;;21.30;45.02;101272.68;109310;1280;19192;-73
2021/12/23 04:46:57;;;;;;;;;25.00;23.00;;;;;21.29;45.01;101270.77;109349;1280;19437;-73
2021/12/23 04:49:23;;;;;;;;;27.00;22.00;;;;;21.29;45.07;101271.81;109332;1280;21225;-73
2021/12/23 04:51:49;;;;;;;;;23.33;21.67;;;;;21.27;44.90;101263.32;109360;1280;20950;-73
2021/12/23 04:54:15;;;;;;;;;24.50;22.00;;;;;21.28;44.95;101260.85;109343;1280;18918;-73
2021/12/23 04:56:41;;;;;;;;;23.50;21.00;;;;;21.28;44.96;101258.34;109361;1279;19671;-73
2021/12/23 04:59:06;;;;;;;;;26.00;22.50;;;;;21.27;44.63;101256.98;109250;1280;19225;-73
2021/12/23 05:01:33;;;;;;;;;26.00;24.00;;;;;21.29;44.75;101256.44;109308;1280;18753;-73
2021/12/23 05:03:58;;;;;;;;;24.67;22.00;;;;;21.28;44.51;101252.89;109207;1280;21655;-72
2021/12/23 05:06:24;;;;;;;;;25.00;21.50;;;;;21.28;44.61;101245.08;109402;1279;19105;-73
2021/12/23 05:08:50;;;;;;;;;25.00;21.50;;;;;21.27;44.54;101235.15;109384;1278;18714;-73
2021/12/23 05:11:17;;;;;;;;;22.00;20.00;;;;;21.28;44.47;101234.71;109381;1279;19387;-73
2021/12/23 05:13:42;;;;;;;;;23.00;23.00;;;;;21.27;44.61;101228.79;109297;1279;22391;-73
2021/12/23 05:16:08;;;;;;;;;23.50;21.00;;;;;21.26;44.62;101220.40;109322;1279;18700;-73
2021/12/23 05:18:34;;;;;;;;;24.00;22.00;;;;;21.26;44.57;101220.73;109384;1280;19937;-73
2021/12/23 05:21:02;;;;;;;;;24.00;21.00;;;;;21.26;44.49;101222.71;109357;1279;23132;-73
2021/12/23 05:23:28;;;;;;;;;23.67;22.00;;;;;21.26;44.44;101214.23;109284;1279;19154;-73
2021/12/23 05:25:54;;;;;;;;;22.50;20.00;;;;;21.26;44.39;101210.38;109317;1279;20881;-71
2021/12/23 05:28:20;;;;;;;;;28.00;25.00;;;;;21.25;44.42;101208.14;109352;1280;18654;-71
2021/12/23 05:30:45;;;;;;;;;25.00;22.00;;;;;21.25;44.25;101207.21;109334;1280;19729;-71
2021/12/23 05:33:11;;;;;;;;;28.00;24.00;;;;;21.24;44.35;101204.45;109347;1280;19880;-71
2021/12/23 05:35:37;;;;;;;;;24.50;22.00;;;;;21.24;44.46;101199.34;109273;1279;18902;-71
2021/12/23 05:38:03;;;;;;;;;24.50;24.00;;;;;21.23;44.52;101199.06;109340;1280;18746;-69
2021/12/23 05:40:29;;;;;;;;;25.00;20.50;;;;;21.23;44.47;101194.90;109323;1279;19452;-71
2021/12/23 05:42:55;;;;;;;;;24.50;23.50;;;;;21.23;44.12;101192.59;109311;1280;20131;-73
2021/12/23 05:45:21;;;;;;;;;24.00;22.00;;;;;21.22;44.45;101188.84;109405;1280;21273;-73
2021/12/23 05:47:47;;;;;;;;;25.00;21.50;;;;;21.23;44.31;101188.30;109365;1280;19499;-74
2021/12/23 05:50:12;;;;;;;;;25.00;24.00;;;;;21.23;44.21;101182.23;109339;1279;18891;-71
2021/12/23 05:52:38;;;;;;;;;25.00;23.50;;;;;21.22;44.18;101179.17;109345;1280;18992;-72
2021/12/23 05:55:04;;;;;;;;;28.50;25.00;;;;;21.24;44.20;101179.35;109353;1279;19876;-72
2021/12/23 05:57:30;;;;;;;;;21.50;21.00;;;;;21.19;44.02;101172.59;109318;1280;19386;-72
2021/12/23 05:59:56;;;;;;;;;28.00;22.00;;;;;21.22;44.16;101172.98;109327;1280;18932;-72
2021/12/23 06:02:22;;;;;;;;;27.00;21.50;;;;;21.24;44.21;101168.10;109324;1279;23398;-72
2021/12/23 06:04:48;;;;;;;;;25.00;23.00;;;;;21.23;44.05;101166.20;109345;1279;19215;-72
2021/12/23 06:07:14;;;;;;;;;25.00;22.00;;;;;21.22;44.30;101166.08;109365;1280;22033;-72
2021/12/23 06:09:39;;;;;;;;;28.00;21.33;;;;;21.24;44.28;101166.33;109383;1279;21168;-71
2021/12/23 06:12:05;;;;;;;;;29.00;25.50;;;;;21.23;44.12;101167.23;109305;1280;19350;-72
2021/12/23 06:14:31;;;;;;;;;24.00;21.50;;;;;21.22;44.11;101165.20;109341;1279;18963;-72
2021/12/23 06:16:57;;;;;;;;;26.00;25.00;;;;;21.23;44.11;101165.66;109331;1280;21063;-72
2021/12/23 06:19:23;;;;;;;;;28.50;25.50;;;;;21.25;43.97;101164.17;109352;1280;22079;-71
2021/12/23 06:21:49;;;;;;;;;24.50;21.00;;;;;21.24;43.94;101164.06;109293;1279;19397;-72
2021/12/23 06:24:15;;;;;;;;;24.00;22.00;;;;;21.24;43.97;101161.75;109324;1279;19626;-71
2021/12/23 06:26:41;;;;;;;;;24.00;22.50;;;;;21.24;44.19;101157.71;109297;1280;20086;-71
2021/12/23 06:29:06;;;;;;;;;25.00;22.50;;;;;21.23;44.10;101145.29;109345;1279;19455;-73
2021/12/23 06:31:32;;;;;;;;;25.50;24.00;;;;;21.35;44.65;101145.84;109331;1280;19332;-73
2021/12/23 06:33:58;;;;;;;;;25.00;20.50;;;;;21.41;44.82;101141.64;109312;1279;22024;-73
2021/12/23 06:36:24;;;;;;;;;28.00;24.50;;;;;21.43;44.95;101134.31;109299;1280;19397;-74
2021/12/23 06:38:50;;;;;;;;;28.67;23.67;;;;;21.47;45.24;101131.91;109202;1280;20152;-74
2021/12/23 06:41:18;;;;;;;;;25.50;21.50;;;;;21.46;45.20;101130.19;109254;1279;18846;-74
2021/12/23 06:43:44;;;;;;;;;28.00;24.50;;;;;21.48;45.20;101125.40;109280;1279;20673;-73
2021/12/23 06:46:10;;;;;;;;;22.00;22.00;;;;;21.52;45.24;101123.35;109257;1279;19348;-73
2021/12/23 06:48:36;;;;;;;;;25.00;22.00;;;;;21.55;45.34;101124.78;109297;1279;18607;-73
2021/12/23 06:51:02;;;;;;;;;28.00;24.00;;;;;21.57;45.69;101115.80;109358;1279;19317;-74
2021/12/23 06:53:27;;;;;;;;;22.00;20.00;;;;;21.59;45.96;101118.67;109247;1279;20217;-73
2021/12/23 06:55:55;;;;;;;;;20.00;20.00;;;;;21.60;46.28;101121.64;109290;1280;18554;-74
2021/12/23 06:58:22;;;;;;;;;23.33;22.00;;;;;21.61;46.41;101116.69;109300;1279;19534;-75
2021/12/23 07:00:48;;;;;;;;;27.00;22.67;;;;;21.63;46.39;101119.00;109280;1280;21167;-74
2021/12/23 07:03:14;;;;;;;;;23.00;20.50;;;;;21.63;46.43;101115.76;109333;1279;19260;-74
2021/12/23 07:05:40;;;;;;;;;21.00;20.00;;;;;21.62;46.63;101115.36;109211;1280;18844;-73
2021/12/23 07:08:10;;;;;;;;;22.00;19.00;;;;;21.63;46.51;101104.71;109298;1280;19327;-74
2021/12/23 07:10:36;;;;;;;;;23.33;21.33;;;;;21.63;46.55;101103.94;109324;1279;19870;-75
2021/12/23 07:13:02;;;;;;;;;22.00;20.00;;;;;21.65;46.52;101102.05;109204;1279;18766;-75
2021/12/23 07:15:28;;;;;;;;;25.00;23.67;;;;;21.64;46.68;101100.72;109336;1280;22309;-75
2021/12/23 07:17:54;;;;;;;;;24.00;21.00;;;;;21.63;46.80;101099.56;109206;1279;18572;-75
2021/12/23 07:20:20;;;;;;;;;24.00;21.00;;;;;21.62;46.60;101100.04;109329;1279;18790;-74
2021/12/23 07:22:46;;;;;;;;;22.00;20.50;;;;;21.63;46.84;101098.34;109309;1279;19609;-74
2021/12/23 07:25:13;;;;;;;;;32.50;24.00;;;;;21.57;46.98;101095.31;109346;1280;20994;-73
2021/12/23 07:27:39;;;;;;;;;24.67;21.00;;;;;21.56;47.06;101087.75;109300;1279;18869;-74
2021/12/23 07:30:05;;;;;;;;;22.00;21.00;;;;;21.57;46.98;101082.36;109319;1279;19311;-74
2021/12/23 07:32:30;;;;;;;;;19.00;17.00;;;;;21.61;46.61;101081.27;109186;1280;23695;-73
2021/12/23 07:34:56;;;;;;;;;28.50;26.00;;;;;21.58;46.78;101080.83;109337;1280;20546;-73
2021/12/23 07:37:22;;;;;;;;;37.50;32.00;;;;;21.44;45.76;101073.13;109343;1278;19337;-74
2021/12/23 07:39:48;;;;;;;;;29.00;25.50;;;;;21.40;44.98;101064.20;109305;1280;20039;-74
2021/12/23 07:42:15;;;;;;;;;29.00;25.67;;;;;21.43;44.99;101066.88;109401;1280;18977;-73
2021/12/23 07:44:41;;;;;;;;;28.50;26.50;;;;;21.45;45.13;101057.73;109327;1279;21034;-71
2021/12/23 07:47:07;;;;;;;;;32.00;25.00;;;;;21.47;45.07;101049.02;109306;1280;18750;-71
2021/12/23 07:49:33;;;;;;;;;26.00;22.50;;;;;21.51;45.13;101050.86;109303;1280;18709;-74
2021/12/23 07:51:59;;;;;;;;;27.50;24.50;;;;;21.54;45.83;101051.08;109392;1280;19317;-74
2021/12/23 07:54:24;;;;;;;;;25.50;22.00;;;;;21.56;46.11;101047.91;109354;1279;19164;-74
2021/12/23 07:56:50;;;;;;;;;29.00;25.00;;;;;21.59;47.13;101048.16;109292;1280;20185;-73
2021/12/23 07:59:16;;;;;;;;;27.00;24.00;;;;;21.65;47.19;101052.55;109263;1280;19275;-74
2021/12/23 08:01:42;;;;;;;;;24.50;23.00;;;;;21.67;47.01;101042.91;109298;1279;18818;-74
2021/12/23 08:04:08;;;;;;;;;25.50;24.00;;;;;21.68;47.31;101040.83;109235;1280;18742;-74
2021/12/23 08:06:34;;;;;;;;;24.00;22.00;;;;;21.69;47.21;101037.41;109323;1280;23022;-74
2021/12/23 08:09:00;;;;;;;;;22.00;21.00;;;;;21.71;46.90;101036.50;109314;1279;18674;-72
2021/12/23 08:11:25;;;;;;;;;25.50;22.00;;;;;21.70;46.64;101033.16;109328;1279;18809;-71
2021/12/23 08:13:51;;;;;;;;;23.00;21.00;;;;;21.67;46.62;101034.19;109339;1279;19346;-73
2021/12/23 08:16:17;;;;;;;;;24.00;22.50;;;;;21.66;46.78;101029.94;109294;1280;22471;-73
2021/12/23 08:18:43;;;;;;;;;29.00;22.00;;;;;21.67;46.60;101032.73;109188;1280;204927;-73
2021/12/23 08:21:09;;;;;;;;;25.00;22.00;;;;;21.66;46.66;101032.31;109297;1279;23348;-73
2021/12/23 08:23:35;;;;;;;;;25.00;22.50;;;;;21.67;46.81;101028.23;109332;1279;18522;-71
2021/12/23 08:26:04;;;;;;;;;22.00;19.00;;;;;21.71;46.76;101028.92;109324;1280;21355;-71
2021/12/23 08:28:30;;;;;;;;;23.67;20.00;;;;;21.73;46.76;101021.52;109336;1280;19685;-72
2021/12/23 08:30:56;;;;;;;;;27.00;23.00;;;;;21.72;46.75;101024.83;109340;1279;19211;-72
2021/12/23 08:33:22;;;;;;;;;25.33;21.33;;;;;21.73;46.80;101025.44;109223;1280;18352;-74
2021/12/23 08:35:48;;;;;;;;;21.50;19.00;;;;;21.73;47.21;101018.17;109662;1279;21686;-73
2021/12/23 08:38:14;;;;;;;;;25.50;22.50;;;;;21.72;47.40;101013.61;109362;1279;18674;-72
2021/12/23 08:40:40;;;;;;;;;23.00;21.00;;;;;21.74;47.13;101014.99;109319;1280;19143;-72
2021/12/23 08:43:05;;;;;;;;;27.00;24.50;;;;;21.75;46.74;101009.77;109327;1280;20845;-73
2021/12/23 08:45:31;;;;;;;;;25.50;23.50;;;;;21.74;47.11;101004.05;109272;1280;18507;-73
2021/12/23 08:47:57;;;;;;;;;26.50;22.00;;;;;21.74;47.29;101003.36;109256;1279;23158;-75
2021/12/23 08:50:23;;;;;;;;;27.00;23.00;;;;;21.73;47.14;101002.77;109276;1280;19877;-77
2021/12/23 08:52:49;;;;;;;;;25.50;21.00;;;;;21.74;47.48;101003.73;109295;1280;19294;-74
2021/12/23 08:55:15;;;;;;;;;22.00;19.50;;;;;21.74;47.44;101002.10;109299;1278;19154;-74
2021/12/23 08:57:41;;;;;;;;;28.50;26.50;;;;;21.73;47.25;100998.56;109280;1280;19388;-73
2021/12/23 09:00:06;;;;;;;;;30.50;26.00;;;;;21.72;46.71;100997.16;109314;1280;18636;-74
2021/12/23 09:02:32;;;;;;;;;82.00;61.00;;;;;21.71;46.71;100984.66;109283;1279;19004;-74
2021/12/23 09:04:58;;;;;;;;;161.00;125.67;;;;;21.69;46.88;100980.05;109257;1279;19336;-74
2021/12/23 09:07:24;;;;;;;;;165.67;121.67;;;;;21.69;46.88;100982.69;109299;1279;23323;-75
2021/12/23 09:09:51;;;;;;;;;196.67;146.33;;;;;21.69;46.53;100977.42;109312;1280;18687;-73
2021/12/23 09:12:17;;;;;;;;;201.25;157.50;;;;;21.70;46.55;100972.48;109258;1279;22812;-73
2021/12/23 09:14:43;;;;;;;;;200.50;150.75;;;;;21.70;46.88;100968.70;109272;1280;21546;-74
2021/12/23 09:17:09;;;;;;;;;182.00;138.25;;;;;21.70;46.78;100962.15;109228;1279;21110;-74
2021/12/23 09:19:35;;;;;;;;;163.33;128.00;;;;;21.71;46.75;100947.55;109289;1279;20135;-75
2021/12/23 09:22:01;;;;;;;;;135.67;108.33;;;;;21.69;46.81;100941.70;109282;1280;19528;-73
2021/12/23 09:24:27;;;;;;;;;134.33;101.00;;;;;21.64;47.15;100937.56;109274;1279;23166;-73
2021/12/23 09:26:58;;;;;;;;;129.00;98.67;;;;;21.67;46.86;100929.27;109282;1280;24234;-73
2021/12/23 09:34:53;;;;;;;;;111.00;88.67;;;;;21.73;47.33;100917.81;109340;1279;19568;-72
2021/12/23 09:37:19;;;;;;;;;113.67;84.33;;;;;21.75;47.24;100911.38;109297;1280;19325;-72
2021/12/23 09:39:45;;;;;;;;;105.00;82.33;;;;;21.72;47.21;100903.52;109293;1279;19169;-74
2021/12/23 09:42:11;;;;;;;;;98.00;71.00;;;;;21.73;47.14;100900.35;109267;1280;23086;-74
2021/12/23 09:44:37;;;;;;;;;97.00;72.00;;;;;21.73;47.17;100894.31;109253;1279;18916;-73
2021/12/23 09:47:03;;;;;;;;;95.50;68.50;;;;;21.73;47.55;100882.98;109224;1280;19416;-73
2021/12/23 09:49:29;;;;;;;;;98.33;69.00;;;;;21.77;47.44;100880.75;109221;1280;20024;-74
2021/12/23 09:51:55;;;;;;;;;92.00;69.67;;;;;21.77;47.50;100871.89;109298;1280;18902;-72
2021/12/23 09:54:20;;;;;;;;;90.33;63.33;;;;;21.78;47.75;100863.35;109320;1280;22946;-75
2021/12/23 09:56:46;;;;;;;;;90.33;65.00;;;;;21.73;47.76;100859.17;109348;1280;20053;-74
2021/12/23 09:59:12;;;;;;;;;84.33;63.00;;;;;21.68;46.87;100861.80;109329;1280;19561;-75
2021/12/23 10:01:38;;;;;;;;;82.67;61.00;;;;;21.56;45.49;100859.77;109340;1280;21242;-75
2021/12/23 10:04:04;;;;;;;;;84.00;63.33;;;;;21.48;44.81;100847.02;109325;1279;19343;-74
2021/12/23 10:06:30;;;;;;;;;82.00;62.00;;;;;21.47;44.85;100839.61;109339;1280;19219;-74
2021/12/23 10:08:56;;;;;;;;;83.00;61.00;;;;;21.48;44.75;100834.31;109327;1280;18683;-74
2021/12/23 10:11:28;;;;;;;;;81.00;60.00;;;;;21.49;44.80;100830.20;109323;1279;22173;-74
2021/12/23 10:30:28;;;;;;;;;71.00;54.00;;;;;21.55;45.62;100782.25;109276;1280;21359;-75
2021/12/23 10:38:28;;;;;;;;;72.50;54.50;;;;;21.67;45.79;100770.42;109286;1280;21519;-74
2021/12/23 10:40:54;;;;;;;;;70.00;53.50;;;;;21.65;46.03;100762.17;109337;1279;18796;-78
2021/12/23 10:43:20;;;;;;;;;66.00;52.67;;;;;21.65;46.11;100754.05;109286;1280;19466;-76
2021/12/23 10:45:55;;;;;;;;;66.67;50.00;;;;;21.66;46.78;100749.34;109308;1280;18797;-74
2021/12/23 10:48:20;;;;;;;;;68.33;53.67;;;;;21.69;46.84;100746.06;109225;1280;20189;-75
2021/12/23 10:50:50;;;;;;;;;61.00;48.00;;;;;21.68;46.57;100739.42;109332;1279;19501;-76
2021/12/23 10:53:28;;;;;;;;;62.00;47.00;;;;;21.66;46.91;100735.53;109308;1280;19096;-75
2021/12/23 10:58:47;;;;;;;;;279.67;235.67;;;;;21.67;47.05;100722.70;108708;1285;22581;-75
2021/12/23 11:01:13;;;;;;;;;297.25;246.00;;;;;21.61;46.75;100714.09;108720;1285;18814;-78
2021/12/23 11:03:42;;;;;;;;;450.50;366.25;;;;;21.60;46.68;100709.67;108724;1285;20644;-76
2021/12/23 11:06:13;;;;;;;;;416.00;342.75;;;;;21.59;47.01;100705.03;108645;1286;20956;-72
2021/12/23 11:08:47;;;;;;;;;373.00;306.00;;;;;21.61;46.56;100704.05;108663;1286;21991;-73
2021/12/23 11:39:07;;;;;;;;;166.00;139.50;;;;;21.68;47.25;100632.95;108462;1290;20235;-73
2021/12/23 11:41:37;;;;;;;;;149.25;126.50;;;;;21.70;47.43;100630.67;108404;1291;19242;-72
2021/12/23 11:44:03;;;;;;;;;138.00;117.67;;;;;21.66;47.09;100625.29;108404;1291;22532;-72
2021/12/23 11:46:32;;;;;;;;;131.00;106.00;;;;;21.63;46.31;100615.54;108306;1291;19394;-73
2021/12/23 11:49:01;;;;;;;;;119.25;104.00;;;;;21.62;46.07;100602.36;108613;1286;20878;-74
2021/12/23 11:51:31;;;;;;;;;118.25;104.75;;;;;21.61;46.22;100594.08;108765;1285;20628;-74
2021/12/23 11:53:57;;;;;;;;;107.67;92.00;;;;;21.61;46.28;100588.99;108778;1285;20853;-73
2021/12/23 11:56:24;;;;;;;;;114.67;98.00;;;;;21.65;46.28;100582.22;108743;1285;21345;-73